Glen Cove, Washington
Current Conditions -  °F | °C
As of 9:26 PM on Saturday 25 Oct 2014 (Local Time) from KNUW Reporting Station
Overcast Overcast  
Wind Chill: 55°   Ceiling: 7500
Heat Index: 55°   Visibility: 10mi
Dew Point: 46°   Wind: 35mph
Humidity: 72%   Direction: 260°W
Pressure: 29.48"   Gusts: 47mph
Location:  48.026°N, 122.859°W
Report Text: KNUW 260426Z 26030G41KT 10SM FEW011 SCT020 OVC075 13/08 A2948 RMK AO2 PK WND 26044/0414 PRESRR T01280078 $
Loading
Personal Weather Stations






























Interactive Weather Map
Tropical Storm Tracking
New forecast layout! Learn more

10-Day Weather Forecast

Advertisements
Track Severe Weather on mobile